sensor_id;sensor_type;location;lat;lon;timestamp;temperature;humidity
27492;DHT22;14927;51.210;6.838;2023-12-07T00:01:20;6.50;65.80
27492;DHT22;14927;51.210;6.838;2023-12-07T00:04:05;6.60;65.90
27492;DHT22;14927;51.210;6.838;2023-12-07T00:06:49;6.60;65.90
27492;DHT22;14927;51.210;6.838;2023-12-07T00:09:34;6.70;66.10
27492;DHT22;14927;51.210;6.838;2023-12-07T00:12:18;6.40;65.90
27492;DHT22;14927;51.210;6.838;2023-12-07T00:15:03;6.60;66.20
27492;DHT22;14927;51.210;6.838;2023-12-07T00:17:49;6.30;66.00
27492;DHT22;14927;51.210;6.838;2023-12-07T00:20:33;6.40;66.10
27492;DHT22;14927;51.210;6.838;2023-12-07T00:23:18;6.50;66.00
27492;DHT22;14927;51.210;6.838;2023-12-07T00:26:04;6.30;65.80
27492;DHT22;14927;51.210;6.838;2023-12-07T00:28:49;6.30;65.80
27492;DHT22;14927;51.210;6.838;2023-12-07T00:31:33;6.20;65.70
27492;DHT22;14927;51.210;6.838;2023-12-07T00:34:18;6.20;65.70
27492;DHT22;14927;51.210;6.838;2023-12-07T00:37:02;6.50;66.00
27492;DHT22;14927;51.210;6.838;2023-12-07T00:39:47;6.20;65.80
27492;DHT22;14927;51.210;6.838;2023-12-07T00:42:32;6.30;65.80
27492;DHT22;14927;51.210;6.838;2023-12-07T00:45:17;6.40;66.00
27492;DHT22;14927;51.210;6.838;2023-12-07T00:48:01;6.10;65.90
27492;DHT22;14927;51.210;6.838;2023-12-07T00:50:46;6.10;66.10
27492;DHT22;14927;51.210;6.838;2023-12-07T00:53:31;6.30;66.20
27492;DHT22;14927;51.210;6.838;2023-12-07T00:56:16;6.30;66.30
27492;DHT22;14927;51.210;6.838;2023-12-07T00:59:03;6.10;66.20
27492;DHT22;14927;51.210;6.838;2023-12-07T01:01:49;6.10;66.30
27492;DHT22;14927;51.210;6.838;2023-12-07T01:04:37;6.00;66.20
27492;DHT22;14927;51.210;6.838;2023-12-07T01:07:22;6.00;66.50
27492;DHT22;14927;51.210;6.838;2023-12-07T01:10:07;6.00;66.60
27492;DHT22;14927;51.210;6.838;2023-12-07T01:12:52;6.00;66.60
27492;DHT22;14927;51.210;6.838;2023-12-07T01:15:37;6.20;67.00
27492;DHT22;14927;51.210;6.838;2023-12-07T01:18:22;6.00;66.90
27492;DHT22;14927;51.210;6.838;2023-12-07T01:21:06;5.90;66.80
27492;DHT22;14927;51.210;6.838;2023-12-07T01:23:51;5.90;66.90
27492;DHT22;14927;51.210;6.838;2023-12-07T01:26:36;6.00;67.00
27492;DHT22;14927;51.210;6.838;2023-12-07T01:29:21;5.90;66.90
27492;DHT22;14927;51.210;6.838;2023-12-07T01:32:05;5.90;66.80
27492;DHT22;14927;51.210;6.838;2023-12-07T01:34:50;5.90;66.80
27492;DHT22;14927;51.210;6.838;2023-12-07T01:37:34;6.00;66.90
27492;DHT22;14927;51.210;6.838;2023-12-07T01:40:28;5.90;66.80
27492;DHT22;14927;51.210;6.838;2023-12-07T01:43:23;5.90;66.80
27492;DHT22;14927;51.210;6.838;2023-12-07T01:46:07;5.80;66.70
27492;DHT22;14927;51.210;6.838;2023-12-07T01:48:52;5.70;66.70
27492;DHT22;14927;51.210;6.838;2023-12-07T01:51:36;5.90;66.80
27492;DHT22;14927;51.210;6.838;2023-12-07T01:54:24;5.90;66.90
27492;DHT22;14927;51.210;6.838;2023-12-07T01:57:09;6.00;67.20
27492;DHT22;14927;51.210;6.838;2023-12-07T01:59:54;5.80;67.30
27492;DHT22;14927;51.210;6.838;2023-12-07T02:02:38;5.90;67.50
27492;DHT22;14927;51.210;6.838;2023-12-07T02:05:24;6.10;67.90
27492;DHT22;14927;51.210;6.838;2023-12-07T02:08:09;5.90;68.00
27492;DHT22;14927;51.210;6.838;2023-12-07T02:10:54;5.90;68.20
27492;DHT22;14927;51.210;6.838;2023-12-07T02:13:40;6.10;69.30
27492;DHT22;14927;51.210;6.838;2023-12-07T02:16:43;6.00;68.70
27492;DHT22;14927;51.210;6.838;2023-12-07T02:19:49;6.00;69.10
27492;DHT22;14927;51.210;6.838;2023-12-07T02:22:42;6.10;69.50
27492;DHT22;14927;51.210;6.838;2023-12-07T02:25:55;6.00;69.30
27492;DHT22;14927;51.210;6.838;2023-12-07T02:28:42;6.10;69.60
27492;DHT22;14927;51.210;6.838;2023-12-07T02:31:27;6.10;69.60
27492;DHT22;14927;51.210;6.838;2023-12-07T02:34:12;6.10;69.70
27492;DHT22;14927;51.210;6.838;2023-12-07T02:36:58;6.20;69.90
27492;DHT22;14927;51.210;6.838;2023-12-07T02:39:45;6.40;70.10
27492;DHT22;14927;51.210;6.838;2023-12-07T02:42:31;6.00;70.00
27492;DHT22;14927;51.210;6.838;2023-12-07T02:45:17;6.30;70.10
27492;DHT22;14927;51.210;6.838;2023-12-07T02:48:02;6.30;70.20
27492;DHT22;14927;51.210;6.838;2023-12-07T02:50:46;6.40;70.30
27492;DHT22;14927;51.210;6.838;2023-12-07T02:53:31;6.40;71.20
27492;DHT22;14927;51.210;6.838;2023-12-07T02:56:16;6.40;70.40
27492;DHT22;14927;51.210;6.838;2023-12-07T02:59:01;6.40;70.50
27492;DHT22;14927;51.210;6.838;2023-12-07T03:01:45;6.50;70.60
27492;DHT22;14927;51.210;6.838;2023-12-07T03:04:30;6.60;70.70
27492;DHT22;14927;51.210;6.838;2023-12-07T03:07:14;6.50;70.70
27492;DHT22;14927;51.210;6.838;2023-12-07T03:09:59;6.50;70.80
27492;DHT22;14927;51.210;6.838;2023-12-07T03:12:43;6.60;70.80
27492;DHT22;14927;51.210;6.838;2023-12-07T03:15:28;6.70;70.90
27492;DHT22;14927;51.210;6.838;2023-12-07T03:18:13;6.70;70.90
27492;DHT22;14927;51.210;6.838;2023-12-07T03:20:57;6.70;71.00
27492;DHT22;14927;51.210;6.838;2023-12-07T03:23:42;6.70;71.70
27492;DHT22;14927;51.210;6.838;2023-12-07T03:26:27;6.80;71.00
27492;DHT22;14927;51.210;6.838;2023-12-07T03:29:11;6.80;71.00
27492;DHT22;14927;51.210;6.838;2023-12-07T03:31:56;6.90;71.10
27492;DHT22;14927;51.210;6.838;2023-12-07T03:34:40;7.10;71.20
27492;DHT22;14927;51.210;6.838;2023-12-07T03:37:25;7.20;71.20
27492;DHT22;14927;51.210;6.838;2023-12-07T03:40:10;7.00;71.00
27492;DHT22;14927;51.210;6.838;2023-12-07T03:42:54;7.00;71.00
27492;DHT22;14927;51.210;6.838;2023-12-07T03:45:41;7.20;71.10
27492;DHT22;14927;51.210;6.838;2023-12-07T03:48:26;7.00;71.00
27492;DHT22;14927;51.210;6.838;2023-12-07T03:51:13;7.10;71.00
27492;DHT22;14927;51.210;6.838;2023-12-07T03:54:00;7.10;70.90
27492;DHT22;14927;51.210;6.838;2023-12-07T03:56:45;7.10;70.90
27492;DHT22;14927;51.210;6.838;2023-12-07T03:59:29;7.20;71.00
27492;DHT22;14927;51.210;6.838;2023-12-07T04:02:14;7.20;71.00
27492;DHT22;14927;51.210;6.838;2023-12-07T04:04:59;7.40;71.20
27492;DHT22;14927;51.210;6.838;2023-12-07T04:07:47;7.20;71.10
27492;DHT22;14927;51.210;6.838;2023-12-07T04:10:31;7.30;71.10
27492;DHT22;14927;51.210;6.838;2023-12-07T04:13:16;7.30;71.10
27492;DHT22;14927;51.210;6.838;2023-12-07T04:16:01;7.30;71.10
27492;DHT22;14927;51.210;6.838;2023-12-07T04:18:47;7.40;71.10
27492;DHT22;14927;51.210;6.838;2023-12-07T04:21:32;7.40;71.10
27492;DHT22;14927;51.210;6.838;2023-12-07T04:24:16;7.40;71.00
27492;DHT22;14927;51.210;6.838;2023-12-07T04:27:01;7.40;71.00
27492;DHT22;14927;51.210;6.838;2023-12-07T04:29:46;7.50;71.00
27492;DHT22;14927;51.210;6.838;2023-12-07T04:32:30;7.70;71.00
27492;DHT22;14927;51.210;6.838;2023-12-07T04:35:15;7.50;70.90
27492;DHT22;14927;51.210;6.838;2023-12-07T04:38:00;7.50;70.90
27492;DHT22;14927;51.210;6.838;2023-12-07T04:40:44;7.50;70.80
27492;DHT22;14927;51.210;6.838;2023-12-07T04:43:29;7.50;70.90
27492;DHT22;14927;51.210;6.838;2023-12-07T04:46:13;7.60;71.00
27492;DHT22;14927;51.210;6.838;2023-12-07T04:48:58;7.60;71.10
27492;DHT22;14927;51.210;6.838;2023-12-07T04:51:43;7.80;71.90
27492;DHT22;14927;51.210;6.838;2023-12-07T04:54:33;7.60;71.10
27492;DHT22;14927;51.210;6.838;2023-12-07T04:57:18;7.80;71.30
27492;DHT22;14927;51.210;6.838;2023-12-07T05:00:03;7.70;71.10
27492;DHT22;14927;51.210;6.838;2023-12-07T05:02:53;7.80;71.10
27492;DHT22;14927;51.210;6.838;2023-12-07T05:05:40;7.70;71.60
27492;DHT22;14927;51.210;6.838;2023-12-07T05:08:24;7.80;70.90
27492;DHT22;14927;51.210;6.838;2023-12-07T05:11:09;7.80;70.90
27492;DHT22;14927;51.210;6.838;2023-12-07T05:13:54;7.80;71.00
27492;DHT22;14927;51.210;6.838;2023-12-07T05:16:38;7.90;71.20
27492;DHT22;14927;51.210;6.838;2023-12-07T05:19:24;7.80;71.10
27492;DHT22;14927;51.210;6.838;2023-12-07T05:22:12;7.90;71.10
27492;DHT22;14927;51.210;6.838;2023-12-07T05:24:58;8.00;71.20
27492;DHT22;14927;51.210;6.838;2023-12-07T05:27:42;7.90;71.20
27492;DHT22;14927;51.210;6.838;2023-12-07T05:30:27;7.90;71.10
27492;DHT22;14927;51.210;6.838;2023-12-07T05:33:13;8.00;71.10
27492;DHT22;14927;51.210;6.838;2023-12-07T05:35:58;8.00;71.00
27492;DHT22;14927;51.210;6.838;2023-12-07T05:38:43;8.00;71.10
27492;DHT22;14927;51.210;6.838;2023-12-07T05:41:27;8.00;71.10
27492;DHT22;14927;51.210;6.838;2023-12-07T05:44:12;8.00;71.00
27492;DHT22;14927;51.210;6.838;2023-12-07T05:46:57;8.10;71.10
27492;DHT22;14927;51.210;6.838;2023-12-07T05:49:41;8.00;71.00
27492;DHT22;14927;51.210;6.838;2023-12-07T05:52:26;8.10;71.00
27492;DHT22;14927;51.210;6.838;2023-12-07T05:55:11;8.10;71.00
27492;DHT22;14927;51.210;6.838;2023-12-07T05:57:59;8.20;71.00
27492;DHT22;14927;51.210;6.838;2023-12-07T06:00:44;8.10;70.80
27492;DHT22;14927;51.210;6.838;2023-12-07T06:03:30;8.30;70.90
27492;DHT22;14927;51.210;6.838;2023-12-07T06:06:16;8.20;70.80
27492;DHT22;14927;51.210;6.838;2023-12-07T06:09:01;8.20;70.80
27492;DHT22;14927;51.210;6.838;2023-12-07T06:11:49;8.20;70.70
27492;DHT22;14927;51.210;6.838;2023-12-07T06:14:33;8.10;70.50
27492;DHT22;14927;51.210;6.838;2023-12-07T06:17:20;8.10;70.40
27492;DHT22;14927;51.210;6.838;2023-12-07T06:20:05;8.40;70.50
27492;DHT22;14927;51.210;6.838;2023-12-07T06:22:50;8.20;70.20
27492;DHT22;14927;51.210;6.838;2023-12-07T06:25:35;8.20;70.00
27492;DHT22;14927;51.210;6.838;2023-12-07T06:28:19;8.20;69.90
27492;DHT22;14927;51.210;6.838;2023-12-07T06:31:07;8.20;69.80
27492;DHT22;14927;51.210;6.838;2023-12-07T06:33:52;8.20;69.70
27492;DHT22;14927;51.210;6.838;2023-12-07T06:36:37;8.20;69.70
27492;DHT22;14927;51.210;6.838;2023-12-07T06:39:22;8.20;69.60
27492;DHT22;14927;51.210;6.838;2023-12-07T06:42:06;8.10;69.60
27492;DHT22;14927;51.210;6.838;2023-12-07T06:44:52;8.20;69.60
27492;DHT22;14927;51.210;6.838;2023-12-07T06:47:40;8.40;69.70
27492;DHT22;14927;51.210;6.838;2023-12-07T06:50:26;8.20;69.50
27492;DHT22;14927;51.210;6.838;2023-12-07T06:53:11;8.20;69.40
27492;DHT22;14927;51.210;6.838;2023-12-07T06:55:55;8.20;69.40
27492;DHT22;14927;51.210;6.838;2023-12-07T06:58:40;8.20;69.30
27492;DHT22;14927;51.210;6.838;2023-12-07T07:01:25;8.20;69.20
27492;DHT22;14927;51.210;6.838;2023-12-07T07:04:10;8.20;69.90
27492;DHT22;14927;51.210;6.838;2023-12-07T07:06:55;8.30;69.00
27492;DHT22;14927;51.210;6.838;2023-12-07T07:09:39;8.10;68.90
27492;DHT22;14927;51.210;6.838;2023-12-07T07:12:24;8.20;68.90
27492;DHT22;14927;51.210;6.838;2023-12-07T07:15:09;8.10;68.80
27492;DHT22;14927;51.210;6.838;2023-12-07T07:17:53;8.20;68.70
27492;DHT22;14927;51.210;6.838;2023-12-07T07:20:38;8.10;68.70
27492;DHT22;14927;51.210;6.838;2023-12-07T07:23:23;8.20;68.70
27492;DHT22;14927;51.210;6.838;2023-12-07T07:26:07;8.10;68.50
27492;DHT22;14927;51.210;6.838;2023-12-07T07:28:52;8.10;68.40
27492;DHT22;14927;51.210;6.838;2023-12-07T07:31:37;8.20;68.40
27492;DHT22;14927;51.210;6.838;2023-12-07T07:34:22;8.10;68.30
27492;DHT22;14927;51.210;6.838;2023-12-07T07:37:07;8.10;68.30
27492;DHT22;14927;51.210;6.838;2023-12-07T07:39:51;8.00;68.10
27492;DHT22;14927;51.210;6.838;2023-12-07T07:42:36;8.20;68.20
27492;DHT22;14927;51.210;6.838;2023-12-07T07:45:21;8.20;68.20
27492;DHT22;14927;51.210;6.838;2023-12-07T07:48:06;8.00;68.00
27492;DHT22;14927;51.210;6.838;2023-12-07T07:50:50;8.00;67.90
27492;DHT22;14927;51.210;6.838;2023-12-07T07:53:35;8.00;67.90
27492;DHT22;14927;51.210;6.838;2023-12-07T07:56:19;7.90;67.90
27492;DHT22;14927;51.210;6.838;2023-12-07T07:59:04;7.90;67.90
27492;DHT22;14927;51.210;6.838;2023-12-07T08:01:49;7.90;67.90
27492;DHT22;14927;51.210;6.838;2023-12-07T08:04:33;7.90;67.90
27492;DHT22;14927;51.210;6.838;2023-12-07T08:07:18;7.90;68.00
27492;DHT22;14927;51.210;6.838;2023-12-07T08:10:03;7.80;67.90
27492;DHT22;14927;51.210;6.838;2023-12-07T08:12:48;7.80;67.90
27492;DHT22;14927;51.210;6.838;2023-12-07T08:15:34;7.90;68.20
27492;DHT22;14927;51.210;6.838;2023-12-07T08:18:19;7.80;68.00
27492;DHT22;14927;51.210;6.838;2023-12-07T08:21:03;7.90;68.10
27492;DHT22;14927;51.210;6.838;2023-12-07T08:23:48;7.80;68.10
27492;DHT22;14927;51.210;6.838;2023-12-07T08:26:33;7.90;68.20
27492;DHT22;14927;51.210;6.838;2023-12-07T08:29:17;7.80;68.20
27492;DHT22;14927;51.210;6.838;2023-12-07T08:32:02;7.80;68.20
27492;DHT22;14927;51.210;6.838;2023-12-07T08:34:47;7.80;68.20
27492;DHT22;14927;51.210;6.838;2023-12-07T08:37:32;7.90;68.30
27492;DHT22;14927;51.210;6.838;2023-12-07T08:40:16;7.90;68.40
27492;DHT22;14927;51.210;6.838;2023-12-07T08:43:01;8.00;68.50
27492;DHT22;14927;51.210;6.838;2023-12-07T08:45:46;7.80;68.30
27492;DHT22;14927;51.210;6.838;2023-12-07T08:48:31;7.80;68.40
27492;DHT22;14927;51.210;6.838;2023-12-07T08:51:15;7.80;68.40
27492;DHT22;14927;51.210;6.838;2023-12-07T08:54:00;7.80;68.50
27492;DHT22;14927;51.210;6.838;2023-12-07T08:56:45;7.80;68.50
27492;DHT22;14927;51.210;6.838;2023-12-07T08:59:30;7.80;68.50
27492;DHT22;14927;51.210;6.838;2023-12-07T09:02:15;7.80;68.40
27492;DHT22;14927;51.210;6.838;2023-12-07T09:04:59;7.90;68.40
27492;DHT22;14927;51.210;6.838;2023-12-07T09:07:44;7.80;68.30
27492;DHT22;14927;51.210;6.838;2023-12-07T09:10:29;7.80;68.30
27492;DHT22;14927;51.210;6.838;2023-12-07T09:13:14;8.00;68.40
27492;DHT22;14927;51.210;6.838;2023-12-07T09:15:58;7.80;68.30
27492;DHT22;14927;51.210;6.838;2023-12-07T09:18:43;7.80;68.30
27492;DHT22;14927;51.210;6.838;2023-12-07T09:21:29;8.00;68.50
27492;DHT22;14927;51.210;6.838;2023-12-07T09:24:18;7.80;68.30
27492;DHT22;14927;51.210;6.838;2023-12-07T09:27:06;7.80;68.30
27492;DHT22;14927;51.210;6.838;2023-12-07T09:29:51;7.80;68.30
27492;DHT22;14927;51.210;6.838;2023-12-07T09:32:41;7.90;68.30
27492;DHT22;14927;51.210;6.838;2023-12-07T09:35:26;7.80;68.20
27492;DHT22;14927;51.210;6.838;2023-12-07T09:38:11;7.90;68.20
27492;DHT22;14927;51.210;6.838;2023-12-07T09:40:58;7.90;68.10
27492;DHT22;14927;51.210;6.838;2023-12-07T09:43:52;7.90;68.00
27492;DHT22;14927;51.210;6.838;2023-12-07T09:46:39;7.90;68.00
27492;DHT22;14927;51.210;6.838;2023-12-07T09:49:24;7.90;68.00
27492;DHT22;14927;51.210;6.838;2023-12-07T09:52:13;8.10;68.00
27492;DHT22;14927;51.210;6.838;2023-12-07T09:54:57;8.00;67.70
27492;DHT22;14927;51.210;6.838;2023-12-07T09:57:43;7.90;68.50
27492;DHT22;14927;51.210;6.838;2023-12-07T10:00:28;8.00;67.60
27492;DHT22;14927;51.210;6.838;2023-12-07T10:03:23;8.00;67.50
27492;DHT22;14927;51.210;6.838;2023-12-07T10:06:08;8.00;67.30
27492;DHT22;14927;51.210;6.838;2023-12-07T10:09:03;8.00;67.30
27492;DHT22;14927;51.210;6.838;2023-12-07T10:11:48;8.00;67.00
27492;DHT22;14927;51.210;6.838;2023-12-07T10:14:33;8.20;67.30
27492;DHT22;14927;51.210;6.838;2023-12-07T10:17:18;8.10;67.30
27492;DHT22;14927;51.210;6.838;2023-12-07T10:20:09;8.10;67.30
27492;DHT22;14927;51.210;6.838;2023-12-07T10:23:09;8.10;67.40
27492;DHT22;14927;51.210;6.838;2023-12-07T10:25:53;8.10;68.30
27492;DHT22;14927;51.210;6.838;2023-12-07T10:28:39;8.20;67.60
27492;DHT22;14927;51.210;6.838;2023-12-07T10:31:24;8.30;67.40
27492;DHT22;14927;51.210;6.838;2023-12-07T10:34:10;8.30;67.00
27492;DHT22;14927;51.210;6.838;2023-12-07T10:36:54;8.30;66.70
27492;DHT22;14927;51.210;6.838;2023-12-07T10:39:42;8.30;66.40
27492;DHT22;14927;51.210;6.838;2023-12-07T10:42:31;8.40;66.10
27492;DHT22;14927;51.210;6.838;2023-12-07T10:45:18;8.40;65.90
27492;DHT22;14927;51.210;6.838;2023-12-07T10:48:08;8.40;65.90
27492;DHT22;14927;51.210;6.838;2023-12-07T10:50:56;8.40;65.60
27492;DHT22;14927;51.210;6.838;2023-12-07T10:53:42;8.40;65.40
27492;DHT22;14927;51.210;6.838;2023-12-07T10:56:32;8.50;65.20
27492;DHT22;14927;51.210;6.838;2023-12-07T10:59:22;8.50;65.00
27492;DHT22;14927;51.210;6.838;2023-12-07T11:02:10;8.50;64.90
27492;DHT22;14927;51.210;6.838;2023-12-07T11:04:58;8.50;64.80
27492;DHT22;14927;51.210;6.838;2023-12-07T11:08:04;8.50;64.80
27492;DHT22;14927;51.210;6.838;2023-12-07T11:11:24;8.50;64.30
27492;DHT22;14927;51.210;6.838;2023-12-07T11:14:16;8.60;64.30
27492;DHT22;14927;51.210;6.838;2023-12-07T11:17:03;8.60;64.70
27492;DHT22;14927;51.210;6.838;2023-12-07T11:19:48;8.60;64.90
27492;DHT22;14927;51.210;6.838;2023-12-07T11:22:32;8.70;64.90
27492;DHT22;14927;51.210;6.838;2023-12-07T11:25:17;8.90;64.80
27492;DHT22;14927;51.210;6.838;2023-12-07T11:28:05;8.80;65.00
27492;DHT22;14927;51.210;6.838;2023-12-07T11:30:51;8.80;65.10
27492;DHT22;14927;51.210;6.838;2023-12-07T11:33:38;8.90;65.00
27492;DHT22;14927;51.210;6.838;2023-12-07T11:36:24;9.10;64.60
27492;DHT22;14927;51.210;6.838;2023-12-07T11:41:55;9.10;64.00
27492;DHT22;14927;51.210;6.838;2023-12-07T11:44:51;9.20;63.80
27492;DHT22;14927;51.210;6.838;2023-12-07T11:47:38;9.50;63.80
27492;DHT22;14927;51.210;6.838;2023-12-07T11:50:23;9.40;63.40
27492;DHT22;14927;51.210;6.838;2023-12-07T11:53:07;9.60;63.30
27492;DHT22;14927;51.210;6.838;2023-12-07T11:55:53;9.70;63.30
27492;DHT22;14927;51.210;6.838;2023-12-07T11:58:38;9.70;63.10
27492;DHT22;14927;51.210;6.838;2023-12-07T12:01:25;9.90;62.70
27492;DHT22;14927;51.210;6.838;2023-12-07T12:04:11;10.00;62.10
27492;DHT22;14927;51.210;6.838;2023-12-07T12:06:55;10.30;62.00
27492;DHT22;14927;51.210;6.838;2023-12-07T12:09:43;10.30;61.60
27492;DHT22;14927;51.210;6.838;2023-12-07T12:12:28;10.40;61.20
27492;DHT22;14927;51.210;6.838;2023-12-07T12:15:13;10.60;61.10
27492;DHT22;14927;51.210;6.838;2023-12-07T12:17:59;10.70;60.80
27492;DHT22;14927;51.210;6.838;2023-12-07T12:20:45;10.80;60.40
27492;DHT22;14927;51.210;6.838;2023-12-07T12:23:29;11.20;60.10
27492;DHT22;14927;51.210;6.838;2023-12-07T12:26:14;11.10;59.60
27492;DHT22;14927;51.210;6.838;2023-12-07T12:29:04;11.20;59.20
27492;DHT22;14927;51.210;6.838;2023-12-07T12:31:49;11.40;58.60
27492;DHT22;14927;51.210;6.838;2023-12-07T12:34:34;11.50;58.50
27492;DHT22;14927;51.210;6.838;2023-12-07T12:37:19;11.60;58.00
27492;DHT22;14927;51.210;6.838;2023-12-07T12:40:07;11.70;57.30
27492;DHT22;14927;51.210;6.838;2023-12-07T12:42:52;11.80;56.60
27492;DHT22;14927;51.210;6.838;2023-12-07T12:45:36;11.80;56.60
27492;DHT22;14927;51.210;6.838;2023-12-07T12:48:21;11.80;56.30
27492;DHT22;14927;51.210;6.838;2023-12-07T12:51:12;12.00;56.90
27492;DHT22;14927;51.210;6.838;2023-12-07T12:53:59;11.80;55.50
27492;DHT22;14927;51.210;6.838;2023-12-07T12:56:44;11.80;55.90
27492;DHT22;14927;51.210;6.838;2023-12-07T12:59:29;11.70;55.90
27492;DHT22;14927;51.210;6.838;2023-12-07T13:02:14;11.70;55.70
27492;DHT22;14927;51.210;6.838;2023-12-07T13:04:59;11.70;55.70
27492;DHT22;14927;51.210;6.838;2023-12-07T13:07:46;11.60;55.60
27492;DHT22;14927;51.210;6.838;2023-12-07T13:10:33;11.70;55.50
27492;DHT22;14927;51.210;6.838;2023-12-07T13:13:18;11.60;55.90
27492;DHT22;14927;51.210;6.838;2023-12-07T13:16:03;11.60;56.10
27492;DHT22;14927;51.210;6.838;2023-12-07T13:18:48;11.60;55.80
27492;DHT22;14927;51.210;6.838;2023-12-07T13:21:33;11.50;55.70
27492;DHT22;14927;51.210;6.838;2023-12-07T13:24:18;11.40;55.60
27492;DHT22;14927;51.210;6.838;2023-12-07T13:27:02;11.30;55.60
27492;DHT22;14927;51.210;6.838;2023-12-07T13:29:47;11.30;55.60
27492;DHT22;14927;51.210;6.838;2023-12-07T13:32:32;11.30;55.70
27492;DHT22;14927;51.210;6.838;2023-12-07T13:35:17;11.30;55.70
27492;DHT22;14927;51.210;6.838;2023-12-07T13:38:02;11.20;55.70
27492;DHT22;14927;51.210;6.838;2023-12-07T13:40:47;11.20;55.80
27492;DHT22;14927;51.210;6.838;2023-12-07T13:43:33;11.20;55.80
27492;DHT22;14927;51.210;6.838;2023-12-07T13:46:18;11.40;56.00
27492;DHT22;14927;51.210;6.838;2023-12-07T13:49:03;11.10;55.90
27492;DHT22;14927;51.210;6.838;2023-12-07T13:51:47;11.30;56.00
27492;DHT22;14927;51.210;6.838;2023-12-07T13:54:32;11.10;55.90
27492;DHT22;14927;51.210;6.838;2023-12-07T13:57:17;11.10;55.90
27492;DHT22;14927;51.210;6.838;2023-12-07T14:00:31;11.10;55.90
27492;DHT22;14927;51.210;6.838;2023-12-07T14:03:42;11.10;55.60
27492;DHT22;14927;51.210;6.838;2023-12-07T14:06:27;11.10;56.10
27492;DHT22;14927;51.210;6.838;2023-12-07T14:09:14;11.20;55.90
27492;DHT22;14927;51.210;6.838;2023-12-07T14:12:01;11.10;55.80
27492;DHT22;14927;51.210;6.838;2023-12-07T14:14:47;11.10;55.80
27492;DHT22;14927;51.210;6.838;2023-12-07T14:17:32;11.00;55.70
27492;DHT22;14927;51.210;6.838;2023-12-07T14:20:21;11.00;55.60
27492;DHT22;14927;51.210;6.838;2023-12-07T14:23:08;10.90;55.60
27492;DHT22;14927;51.210;6.838;2023-12-07T14:25:53;10.90;55.70
27492;DHT22;14927;51.210;6.838;2023-12-07T14:28:42;11.00;55.70
27492;DHT22;14927;51.210;6.838;2023-12-07T14:31:26;10.80;55.70
27492;DHT22;14927;51.210;6.838;2023-12-07T14:34:11;10.80;55.70
27492;DHT22;14927;51.210;6.838;2023-12-07T14:36:57;10.90;55.80
27492;DHT22;14927;51.210;6.838;2023-12-07T14:39:43;10.80;55.80
27492;DHT22;14927;51.210;6.838;2023-12-07T14:42:28;10.80;55.90
27492;DHT22;14927;51.210;6.838;2023-12-07T14:45:12;10.70;55.90
27492;DHT22;14927;51.210;6.838;2023-12-07T14:47:59;10.70;55.90
27492;DHT22;14927;51.210;6.838;2023-12-07T14:50:43;10.70;56.00
27492;DHT22;14927;51.210;6.838;2023-12-07T14:53:28;10.70;56.00
27492;DHT22;14927;51.210;6.838;2023-12-07T14:56:13;10.70;56.00
27492;DHT22;14927;51.210;6.838;2023-12-07T14:59:01;10.60;56.00
27492;DHT22;14927;51.210;6.838;2023-12-07T15:01:45;10.70;56.10
27492;DHT22;14927;51.210;6.838;2023-12-07T15:04:30;10.60;56.10
27492;DHT22;14927;51.210;6.838;2023-12-07T15:07:15;10.60;56.10
27492;DHT22;14927;51.210;6.838;2023-12-07T15:10:00;10.50;56.20
27492;DHT22;14927;51.210;6.838;2023-12-07T15:12:45;10.60;56.20
27492;DHT22;14927;51.210;6.838;2023-12-07T15:16:05;10.60;56.20
27492;DHT22;14927;51.210;6.838;2023-12-07T15:18:53;10.30;55.90
27492;DHT22;14927;51.210;6.838;2023-12-07T15:21:54;10.40;56.20
27492;DHT22;14927;51.210;6.838;2023-12-07T15:24:41;10.30;55.80
27492;DHT22;14927;51.210;6.838;2023-12-07T15:27:26;10.30;56.30
27492;DHT22;14927;51.210;6.838;2023-12-07T15:30:29;10.30;56.40
27492;DHT22;14927;51.210;6.838;2023-12-07T15:33:17;10.30;56.30
27492;DHT22;14927;51.210;6.838;2023-12-07T15:36:03;10.10;56.40
27492;DHT22;14927;51.210;6.838;2023-12-07T15:38:48;10.10;56.60
27492;DHT22;14927;51.210;6.838;2023-12-07T15:41:32;10.30;56.70
27492;DHT22;14927;51.210;6.838;2023-12-07T15:44:17;10.00;56.60
27492;DHT22;14927;51.210;6.838;2023-12-07T15:47:01;9.90;56.70
27492;DHT22;14927;51.210;6.838;2023-12-07T15:49:46;9.90;56.80
27492;DHT22;14927;51.210;6.838;2023-12-07T15:52:31;9.90;56.80
27492;DHT22;14927;51.210;6.838;2023-12-07T15:55:16;9.90;56.90
27492;DHT22;14927;51.210;6.838;2023-12-07T15:58:01;9.80;56.90
27492;DHT22;14927;51.210;6.838;2023-12-07T16:00:45;9.80;56.90
27492;DHT22;14927;51.210;6.838;2023-12-07T16:03:30;9.70;57.00
27492;DHT22;14927;51.210;6.838;2023-12-07T16:06:15;9.70;57.00
27492;DHT22;14927;51.210;6.838;2023-12-07T16:08:59;9.60;57.00
27492;DHT22;14927;51.210;6.838;2023-12-07T16:11:44;9.60;57.00
27492;DHT22;14927;51.210;6.838;2023-12-07T16:14:28;9.70;57.20
27492;DHT22;14927;51.210;6.838;2023-12-07T16:17:13;9.60;57.20
27492;DHT22;14927;51.210;6.838;2023-12-07T16:19:57;9.80;57.90
27492;DHT22;14927;51.210;6.838;2023-12-07T16:22:45;9.50;57.10
27492;DHT22;14927;51.210;6.838;2023-12-07T16:29:08;9.40;57.10
27492;DHT22;14927;51.210;6.838;2023-12-07T16:31:52;9.60;57.30
27492;DHT22;14927;51.210;6.838;2023-12-07T16:34:38;9.40;57.30
27492;DHT22;14927;51.210;6.838;2023-12-07T16:37:22;9.30;57.20
27492;DHT22;14927;51.210;6.838;2023-12-07T16:40:09;9.40;57.30
27492;DHT22;14927;51.210;6.838;2023-12-07T16:42:54;9.30;57.30
27492;DHT22;14927;51.210;6.838;2023-12-07T16:45:40;9.30;57.20
27492;DHT22;14927;51.210;6.838;2023-12-07T16:48:25;9.30;57.20
27492;DHT22;14927;51.210;6.838;2023-12-07T16:51:12;9.30;57.30
27492;DHT22;14927;51.210;6.838;2023-12-07T16:54:24;9.20;57.30
27492;DHT22;14927;51.210;6.838;2023-12-07T16:57:17;9.20;57.20
27492;DHT22;14927;51.210;6.838;2023-12-07T17:00:02;9.20;57.30
27492;DHT22;14927;51.210;6.838;2023-12-07T17:02:49;9.10;57.30
27492;DHT22;14927;51.210;6.838;2023-12-07T17:09:08;9.10;57.30
27492;DHT22;14927;51.210;6.838;2023-12-07T17:11:53;9.10;57.30
27492;DHT22;14927;51.210;6.838;2023-12-07T17:14:38;9.10;57.30
27492;DHT22;14927;51.210;6.838;2023-12-07T17:17:23;9.10;57.30
27492;DHT22;14927;51.210;6.838;2023-12-07T17:20:10;9.10;57.30
27492;DHT22;14927;51.210;6.838;2023-12-07T17:22:55;9.00;57.20
27492;DHT22;14927;51.210;6.838;2023-12-07T17:25:40;8.80;57.10
27492;DHT22;14927;51.210;6.838;2023-12-07T17:28:24;9.10;57.10
27492;DHT22;14927;51.210;6.838;2023-12-07T17:31:12;8.90;57.00
27492;DHT22;14927;51.210;6.838;2023-12-07T17:33:56;8.90;57.00
27492;DHT22;14927;51.210;6.838;2023-12-07T17:36:41;8.90;57.00
27492;DHT22;14927;51.210;6.838;2023-12-07T17:39:25;8.90;57.00
27492;DHT22;14927;51.210;6.838;2023-12-07T17:42:10;9.00;57.00
27492;DHT22;14927;51.210;6.838;2023-12-07T17:44:54;9.10;57.10
27492;DHT22;14927;51.210;6.838;2023-12-07T17:47:42;9.00;57.10
27492;DHT22;14927;51.210;6.838;2023-12-07T17:50:34;8.90;57.00
27492;DHT22;14927;51.210;6.838;2023-12-07T17:53:27;8.80;57.00